sensor_id;sensor_type;location;lat;lon;timestamp;P1;durP1;ratioP1;P2;durP2;ratioP2
23714;SDS011;12036;50.858;4.472;2022-12-07T00:01:08;14.00;;;10.52;;
23714;SDS011;12036;50.858;4.472;2022-12-07T00:03:37;14.82;;;10.38;;
23714;SDS011;12036;50.858;4.472;2022-12-07T00:06:05;19.80;;;10.30;;
23714;SDS011;12036;50.858;4.472;2022-12-07T00:08:32;16.55;;;11.00;;
23714;SDS011;12036;50.858;4.472;2022-12-07T00:11:02;17.40;;;10.20;;
23714;SDS011;12036;50.858;4.472;2022-12-07T00:13:29;17.30;;;11.13;;
23714;SDS011;12036;50.858;4.472;2022-12-07T00:15:55;16.67;;;11.50;;
23714;SDS011;12036;50.858;4.472;2022-12-07T00:18:21;22.38;;;12.25;;
23714;SDS011;12036;50.858;4.472;2022-12-07T00:20:46;19.65;;;12.50;;
23714;SDS011;12036;50.858;4.472;2022-12-07T00:23:15;20.80;;;12.23;;
23714;SDS011;12036;50.858;4.472;2022-12-07T00:25:40;20.02;;;13.02;;
23714;SDS011;12036;50.858;4.472;2022-12-07T00:28:06;23.80;;;12.80;;
23714;SDS011;12036;50.858;4.472;2022-12-07T00:30:34;22.50;;;12.50;;
23714;SDS011;12036;50.858;4.472;2022-12-07T00:32:59;19.20;;;13.85;;
23714;SDS011;12036;50.858;4.472;2022-12-07T00:35:25;22.85;;;12.80;;
23714;SDS011;12036;50.858;4.472;2022-12-07T00:37:51;23.70;;;12.90;;
23714;SDS011;12036;50.858;4.472;2022-12-07T00:40:16;22.05;;;12.38;;
23714;SDS011;12036;50.858;4.472;2022-12-07T00:42:42;19.83;;;12.35;;
23714;SDS011;12036;50.858;4.472;2022-12-07T00:45:08;19.15;;;12.82;;
23714;SDS011;12036;50.858;4.472;2022-12-07T00:47:33;25.25;;;12.93;;
23714;SDS011;12036;50.858;4.472;2022-12-07T00:49:59;18.48;;;12.45;;
23714;SDS011;12036;50.858;4.472;2022-12-07T00:52:25;16.92;;;11.18;;
23714;SDS011;12036;50.858;4.472;2022-12-07T00:54:50;20.08;;;12.88;;
23714;SDS011;12036;50.858;4.472;2022-12-07T00:57:16;20.63;;;12.13;;
23714;SDS011;12036;50.858;4.472;2022-12-07T00:59:42;18.95;;;11.88;;
23714;SDS011;12036;50.858;4.472;2022-12-07T01:02:08;18.38;;;11.80;;
23714;SDS011;12036;50.858;4.472;2022-12-07T01:04:34;17.02;;;12.38;;
23714;SDS011;12036;50.858;4.472;2022-12-07T01:06:59;20.52;;;12.57;;
23714;SDS011;12036;50.858;4.472;2022-12-07T01:09:25;18.15;;;12.43;;
23714;SDS011;12036;50.858;4.472;2022-12-07T01:11:51;20.52;;;12.98;;
23714;SDS011;12036;50.858;4.472;2022-12-07T01:14:16;22.02;;;12.52;;
23714;SDS011;12036;50.858;4.472;2022-12-07T01:16:42;19.95;;;12.40;;
23714;SDS011;12036;50.858;4.472;2022-12-07T01:19:07;22.55;;;13.25;;
23714;SDS011;12036;50.858;4.472;2022-12-07T01:21:34;21.83;;;12.30;;
23714;SDS011;12036;50.858;4.472;2022-12-07T01:24:02;19.27;;;12.18;;
23714;SDS011;12036;50.858;4.472;2022-12-07T01:26:30;20.92;;;13.10;;
23714;SDS011;12036;50.858;4.472;2022-12-07T01:28:56;22.08;;;13.50;;
23714;SDS011;12036;50.858;4.472;2022-12-07T01:31:24;20.45;;;13.38;;
23714;SDS011;12036;50.858;4.472;2022-12-07T01:33:51;18.45;;;13.35;;
23714;SDS011;12036;50.858;4.472;2022-12-07T01:36:31;20.02;;;13.75;;
23714;SDS011;12036;50.858;4.472;2022-12-07T01:38:59;23.63;;;13.98;;
23714;SDS011;12036;50.858;4.472;2022-12-07T01:41:28;21.70;;;13.50;;
23714;SDS011;12036;50.858;4.472;2022-12-07T01:46:40;21.45;;;13.10;;
23714;SDS011;12036;50.858;4.472;2022-12-07T01:49:16;26.98;;;14.13;;
23714;SDS011;12036;50.858;4.472;2022-12-07T01:54:41;21.85;;;13.57;;
23714;SDS011;12036;50.858;4.472;2022-12-07T01:57:08;23.08;;;14.35;;
23714;SDS011;12036;50.858;4.472;2022-12-07T01:59:34;19.35;;;13.45;;
23714;SDS011;12036;50.858;4.472;2022-12-07T02:02:01;25.30;;;14.35;;
23714;SDS011;12036;50.858;4.472;2022-12-07T02:04:31;22.92;;;14.05;;
23714;SDS011;12036;50.858;4.472;2022-12-07T02:06:57;23.70;;;14.25;;
23714;SDS011;12036;50.858;4.472;2022-12-07T02:09:23;22.67;;;13.77;;
23714;SDS011;12036;50.858;4.472;2022-12-07T02:11:48;27.40;;;13.88;;
23714;SDS011;12036;50.858;4.472;2022-12-07T02:14:15;21.42;;;13.75;;
23714;SDS011;12036;50.858;4.472;2022-12-07T02:25:22;21.67;;;12.52;;
23714;SDS011;12036;50.858;4.472;2022-12-07T02:28:14;18.92;;;12.48;;
23714;SDS011;12036;50.858;4.472;2022-12-07T02:30:51;19.88;;;12.00;;
23714;SDS011;12036;50.858;4.472;2022-12-07T02:33:22;19.27;;;12.30;;
23714;SDS011;12036;50.858;4.472;2022-12-07T02:36:22;23.52;;;12.70;;
23714;SDS011;12036;50.858;4.472;2022-12-07T02:41:25;21.25;;;12.20;;
23714;SDS011;12036;50.858;4.472;2022-12-07T02:43:59;20.52;;;13.05;;
23714;SDS011;12036;50.858;4.472;2022-12-07T02:46:29;20.73;;;12.75;;
23714;SDS011;12036;50.858;4.472;2022-12-07T02:49:02;22.92;;;12.70;;
23714;SDS011;12036;50.858;4.472;2022-12-07T02:51:32;19.42;;;12.57;;
23714;SDS011;12036;50.858;4.472;2022-12-07T02:53:59;22.50;;;12.98;;
23714;SDS011;12036;50.858;4.472;2022-12-07T02:56:45;21.05;;;13.00;;
23714;SDS011;12036;50.858;4.472;2022-12-07T03:02:34;20.77;;;12.88;;
23714;SDS011;12036;50.858;4.472;2022-12-07T03:16:16;19.75;;;10.98;;
23714;SDS011;12036;50.858;4.472;2022-12-07T03:19:10;20.52;;;11.45;;
23714;SDS011;12036;50.858;4.472;2022-12-07T03:21:38;17.35;;;10.88;;
23714;SDS011;12036;50.858;4.472;2022-12-07T03:24:10;15.25;;;11.18;;
23714;SDS011;12036;50.858;4.472;2022-12-07T03:26:41;18.83;;;10.25;;
23714;SDS011;12036;50.858;4.472;2022-12-07T03:29:14;15.70;;;10.00;;
23714;SDS011;12036;50.858;4.472;2022-12-07T03:32:06;18.75;;;10.57;;
23714;SDS011;12036;50.858;4.472;2022-12-07T03:34:47;16.15;;;10.30;;
23714;SDS011;12036;50.858;4.472;2022-12-07T03:37:43;16.15;;;9.85;;
23714;SDS011;12036;50.858;4.472;2022-12-07T03:40:18;15.70;;;9.38;;
23714;SDS011;12036;50.858;4.472;2022-12-07T03:42:51;15.48;;;9.27;;
23714;SDS011;12036;50.858;4.472;2022-12-07T03:45:19;17.85;;;10.63;;
23714;SDS011;12036;50.858;4.472;2022-12-07T03:47:52;21.45;;;9.75;;
23714;SDS011;12036;50.858;4.472;2022-12-07T03:53:33;16.77;;;10.27;;
23714;SDS011;12036;50.858;4.472;2022-12-07T03:56:13;16.55;;;9.93;;
23714;SDS011;12036;50.858;4.472;2022-12-07T03:58:40;14.15;;;8.75;;
23714;SDS011;12036;50.858;4.472;2022-12-07T04:01:06;14.15;;;9.20;;
23714;SDS011;12036;50.858;4.472;2022-12-07T04:03:32;16.17;;;9.65;;
23714;SDS011;12036;50.858;4.472;2022-12-07T04:05:58;14.32;;;9.25;;
23714;SDS011;12036;50.858;4.472;2022-12-07T04:08:24;13.88;;;9.30;;
23714;SDS011;12036;50.858;4.472;2022-12-07T04:10:50;16.98;;;10.45;;
23714;SDS011;12036;50.858;4.472;2022-12-07T04:13:16;11.82;;;8.65;;
23714;SDS011;12036;50.858;4.472;2022-12-07T04:15:41;15.10;;;9.77;;
23714;SDS011;12036;50.858;4.472;2022-12-07T04:18:07;19.17;;;10.20;;
23714;SDS011;12036;50.858;4.472;2022-12-07T04:20:32;16.95;;;9.43;;
23714;SDS011;12036;50.858;4.472;2022-12-07T04:22:58;18.17;;;10.10;;
23714;SDS011;12036;50.858;4.472;2022-12-07T04:25:24;12.40;;;9.13;;
23714;SDS011;12036;50.858;4.472;2022-12-07T04:27:49;14.57;;;8.27;;
23714;SDS011;12036;50.858;4.472;2022-12-07T04:30:15;13.43;;;9.40;;
23714;SDS011;12036;50.858;4.472;2022-12-07T04:32:41;17.23;;;8.60;;
23714;SDS011;12036;50.858;4.472;2022-12-07T04:35:06;15.82;;;9.80;;
23714;SDS011;12036;50.858;4.472;2022-12-07T04:37:33;14.95;;;8.95;;
23714;SDS011;12036;50.858;4.472;2022-12-07T04:39:58;13.98;;;9.05;;
23714;SDS011;12036;50.858;4.472;2022-12-07T04:42:24;11.55;;;8.80;;
23714;SDS011;12036;50.858;4.472;2022-12-07T04:44:50;15.50;;;9.43;;
23714;SDS011;12036;50.858;4.472;2022-12-07T04:47:16;18.25;;;9.57;;
23714;SDS011;12036;50.858;4.472;2022-12-07T04:49:41;14.18;;;9.18;;
23714;SDS011;12036;50.858;4.472;2022-12-07T04:52:07;18.00;;;9.63;;
23714;SDS011;12036;50.858;4.472;2022-12-07T04:54:33;15.30;;;10.20;;
23714;SDS011;12036;50.858;4.472;2022-12-07T04:56:59;19.90;;;11.25;;
23714;SDS011;12036;50.858;4.472;2022-12-07T04:59:25;18.45;;;10.80;;
23714;SDS011;12036;50.858;4.472;2022-12-07T05:01:50;15.82;;;9.73;;
23714;SDS011;12036;50.858;4.472;2022-12-07T05:04:16;21.23;;;10.25;;
23714;SDS011;12036;50.858;4.472;2022-12-07T05:06:43;16.85;;;10.07;;
23714;SDS011;12036;50.858;4.472;2022-12-07T05:09:08;22.33;;;10.18;;
23714;SDS011;12036;50.858;4.472;2022-12-07T05:11:34;21.15;;;11.30;;
23714;SDS011;12036;50.858;4.472;2022-12-07T05:14:04;18.27;;;10.45;;
23714;SDS011;12036;50.858;4.472;2022-12-07T05:16:41;20.10;;;10.23;;
23714;SDS011;12036;50.858;4.472;2022-12-07T05:19:07;23.90;;;11.70;;
23714;SDS011;12036;50.858;4.472;2022-12-07T05:21:34;19.52;;;10.88;;
23714;SDS011;12036;50.858;4.472;2022-12-07T05:24:00;17.08;;;12.02;;
23714;SDS011;12036;50.858;4.472;2022-12-07T05:26:27;23.10;;;12.65;;
23714;SDS011;12036;50.858;4.472;2022-12-07T05:28:53;19.38;;;13.02;;
23714;SDS011;12036;50.858;4.472;2022-12-07T05:31:20;21.13;;;12.77;;
23714;SDS011;12036;50.858;4.472;2022-12-07T05:33:47;20.20;;;11.70;;
23714;SDS011;12036;50.858;4.472;2022-12-07T05:36:13;19.98;;;12.75;;
23714;SDS011;12036;50.858;4.472;2022-12-07T05:38:38;25.30;;;12.35;;
23714;SDS011;12036;50.858;4.472;2022-12-07T05:41:05;22.15;;;12.43;;
23714;SDS011;12036;50.858;4.472;2022-12-07T05:43:32;24.25;;;12.57;;
23714;SDS011;12036;50.858;4.472;2022-12-07T05:45:58;22.98;;;13.20;;
23714;SDS011;12036;50.858;4.472;2022-12-07T05:48:24;18.23;;;12.38;;
23714;SDS011;12036;50.858;4.472;2022-12-07T05:50:50;21.05;;;11.82;;
23714;SDS011;12036;50.858;4.472;2022-12-07T05:53:17;20.00;;;11.45;;
23714;SDS011;12036;50.858;4.472;2022-12-07T05:55:42;17.85;;;11.60;;
23714;SDS011;12036;50.858;4.472;2022-12-07T05:58:08;19.85;;;12.02;;
23714;SDS011;12036;50.858;4.472;2022-12-07T06:00:56;20.95;;;12.10;;
23714;SDS011;12036;50.858;4.472;2022-12-07T06:03:22;18.83;;;11.70;;
23714;SDS011;12036;50.858;4.472;2022-12-07T06:05:48;21.67;;;11.77;;
23714;SDS011;12036;50.858;4.472;2022-12-07T06:08:13;19.00;;;11.82;;
23714;SDS011;12036;50.858;4.472;2022-12-07T06:10:42;16.35;;;11.38;;
23714;SDS011;12036;50.858;4.472;2022-12-07T06:13:08;21.20;;;11.77;;
23714;SDS011;12036;50.858;4.472;2022-12-07T06:15:37;19.63;;;11.35;;
23714;SDS011;12036;50.858;4.472;2022-12-07T06:18:02;20.23;;;10.63;;
23714;SDS011;12036;50.858;4.472;2022-12-07T06:20:28;15.38;;;9.85;;
23714;SDS011;12036;50.858;4.472;2022-12-07T06:22:54;21.80;;;10.60;;
23714;SDS011;12036;50.858;4.472;2022-12-07T06:25:20;17.45;;;10.05;;
23714;SDS011;12036;50.858;4.472;2022-12-07T06:27:46;17.65;;;10.23;;
23714;SDS011;12036;50.858;4.472;2022-12-07T06:30:12;15.98;;;9.68;;
23714;SDS011;12036;50.858;4.472;2022-12-07T06:32:37;16.63;;;9.23;;
23714;SDS011;12036;50.858;4.472;2022-12-07T06:35:03;15.38;;;8.60;;
23714;SDS011;12036;50.858;4.472;2022-12-07T06:37:29;20.70;;;10.40;;
23714;SDS011;12036;50.858;4.472;2022-12-07T06:39:55;18.15;;;9.52;;
23714;SDS011;12036;50.858;4.472;2022-12-07T06:42:21;12.82;;;8.98;;
23714;SDS011;12036;50.858;4.472;2022-12-07T06:44:46;22.40;;;9.63;;
23714;SDS011;12036;50.858;4.472;2022-12-07T06:47:12;16.20;;;9.50;;
23714;SDS011;12036;50.858;4.472;2022-12-07T06:49:38;15.38;;;9.32;;
23714;SDS011;12036;50.858;4.472;2022-12-07T06:52:03;17.48;;;9.15;;
23714;SDS011;12036;50.858;4.472;2022-12-07T06:54:30;16.55;;;9.23;;
23714;SDS011;12036;50.858;4.472;2022-12-07T06:56:56;14.02;;;9.50;;
23714;SDS011;12036;50.858;4.472;2022-12-07T06:59:22;19.17;;;10.30;;
23714;SDS011;12036;50.858;4.472;2022-12-07T07:01:47;15.55;;;10.38;;
23714;SDS011;12036;50.858;4.472;2022-12-07T07:04:13;18.42;;;10.55;;
23714;SDS011;12036;50.858;4.472;2022-12-07T07:06:39;16.63;;;10.18;;
23714;SDS011;12036;50.858;4.472;2022-12-07T07:09:04;17.52;;;9.25;;
23714;SDS011;12036;50.858;4.472;2022-12-07T07:11:30;21.80;;;10.38;;
23714;SDS011;12036;50.858;4.472;2022-12-07T07:13:56;14.13;;;9.43;;
23714;SDS011;12036;50.858;4.472;2022-12-07T07:16:24;16.42;;;9.52;;
23714;SDS011;12036;50.858;4.472;2022-12-07T07:18:49;14.20;;;8.23;;
23714;SDS011;12036;50.858;4.472;2022-12-07T07:21:15;19.70;;;8.88;;
23714;SDS011;12036;50.858;4.472;2022-12-07T07:23:40;17.48;;;9.23;;
23714;SDS011;12036;50.858;4.472;2022-12-07T07:26:06;17.92;;;9.10;;
23714;SDS011;12036;50.858;4.472;2022-12-07T07:28:32;13.43;;;8.52;;
23714;SDS011;12036;50.858;4.472;2022-12-07T07:30:57;18.17;;;9.20;;
23714;SDS011;12036;50.858;4.472;2022-12-07T07:33:23;13.35;;;8.73;;
23714;SDS011;12036;50.858;4.472;2022-12-07T07:35:49;14.27;;;9.05;;
23714;SDS011;12036;50.858;4.472;2022-12-07T07:38:14;15.32;;;8.82;;
23714;SDS011;12036;50.858;4.472;2022-12-07T07:40:40;14.35;;;8.85;;
23714;SDS011;12036;50.858;4.472;2022-12-07T07:43:05;16.92;;;9.25;;
23714;SDS011;12036;50.858;4.472;2022-12-07T07:45:31;12.82;;;8.88;;
23714;SDS011;12036;50.858;4.472;2022-12-07T07:47:57;15.05;;;9.30;;
23714;SDS011;12036;50.858;4.472;2022-12-07T07:50:23;20.65;;;9.93;;
23714;SDS011;12036;50.858;4.472;2022-12-07T07:52:48;16.17;;;8.93;;
23714;SDS011;12036;50.858;4.472;2022-12-07T07:55:14;12.95;;;8.85;;
23714;SDS011;12036;50.858;4.472;2022-12-07T07:57:40;19.13;;;9.30;;
23714;SDS011;12036;50.858;4.472;2022-12-07T08:00:10;15.20;;;9.90;;
23714;SDS011;12036;50.858;4.472;2022-12-07T08:02:39;14.55;;;9.27;;
23714;SDS011;12036;50.858;4.472;2022-12-07T08:05:05;16.10;;;9.68;;
23714;SDS011;12036;50.858;4.472;2022-12-07T08:07:31;18.33;;;9.68;;
23714;SDS011;12036;50.858;4.472;2022-12-07T08:09:57;17.95;;;10.45;;
23714;SDS011;12036;50.858;4.472;2022-12-07T08:12:23;20.45;;;10.23;;
23714;SDS011;12036;50.858;4.472;2022-12-07T08:14:48;25.75;;;10.85;;
23714;SDS011;12036;50.858;4.472;2022-12-07T08:17:14;16.80;;;10.23;;
23714;SDS011;12036;50.858;4.472;2022-12-07T08:19:40;19.98;;;10.18;;
23714;SDS011;12036;50.858;4.472;2022-12-07T08:22:05;16.73;;;10.00;;
23714;SDS011;12036;50.858;4.472;2022-12-07T08:24:34;18.95;;;10.23;;
23714;SDS011;12036;50.858;4.472;2022-12-07T08:27:01;18.52;;;9.20;;
23714;SDS011;12036;50.858;4.472;2022-12-07T08:29:27;15.10;;;9.75;;
23714;SDS011;12036;50.858;4.472;2022-12-07T08:31:53;17.30;;;9.80;;
23714;SDS011;12036;50.858;4.472;2022-12-07T08:34:19;17.02;;;10.18;;
23714;SDS011;12036;50.858;4.472;2022-12-07T08:36:44;16.63;;;10.25;;
23714;SDS011;12036;50.858;4.472;2022-12-07T08:39:10;22.25;;;10.90;;
23714;SDS011;12036;50.858;4.472;2022-12-07T08:41:36;16.33;;;10.25;;
23714;SDS011;12036;50.858;4.472;2022-12-07T08:44:01;19.45;;;11.35;;
23714;SDS011;12036;50.858;4.472;2022-12-07T08:46:32;17.30;;;10.88;;
23714;SDS011;12036;50.858;4.472;2022-12-07T08:49:11;19.45;;;11.25;;
23714;SDS011;12036;50.858;4.472;2022-12-07T08:51:40;17.00;;;10.98;;
23714;SDS011;12036;50.858;4.472;2022-12-07T08:54:08;22.45;;;11.23;;
23714;SDS011;12036;50.858;4.472;2022-12-07T08:56:36;17.00;;;11.25;;
23714;SDS011;12036;50.858;4.472;2022-12-07T08:59:03;17.77;;;10.77;;
23714;SDS011;12036;50.858;4.472;2022-12-07T09:01:29;22.88;;;10.50;;
23714;SDS011;12036;50.858;4.472;2022-12-07T09:03:55;21.05;;;9.95;;
23714;SDS011;12036;50.858;4.472;2022-12-07T09:06:20;15.30;;;10.52;;
23714;SDS011;12036;50.858;4.472;2022-12-07T09:08:47;19.98;;;10.77;;
23714;SDS011;12036;50.858;4.472;2022-12-07T09:11:16;21.23;;;10.48;;
23714;SDS011;12036;50.858;4.472;2022-12-07T09:13:41;18.75;;;10.35;;
23714;SDS011;12036;50.858;4.472;2022-12-07T09:16:07;20.55;;;9.98;;
23714;SDS011;12036;50.858;4.472;2022-12-07T09:18:33;15.38;;;9.38;;
23714;SDS011;12036;50.858;4.472;2022-12-07T09:20:58;20.60;;;9.07;;
23714;SDS011;12036;50.858;4.472;2022-12-07T09:23:24;15.45;;;8.63;;
23714;SDS011;12036;50.858;4.472;2022-12-07T09:25:50;14.93;;;8.52;;
23714;SDS011;12036;50.858;4.472;2022-12-07T09:28:16;16.67;;;8.23;;
23714;SDS011;12036;50.858;4.472;2022-12-07T09:30:45;14.35;;;8.57;;
23714;SDS011;12036;50.858;4.472;2022-12-07T09:33:11;16.27;;;7.22;;
23714;SDS011;12036;50.858;4.472;2022-12-07T09:35:37;10.40;;;6.93;;
23714;SDS011;12036;50.858;4.472;2022-12-07T09:38:08;12.52;;;7.40;;
23714;SDS011;12036;50.858;4.472;2022-12-07T09:40:34;11.48;;;7.13;;
23714;SDS011;12036;50.858;4.472;2022-12-07T09:43:00;10.30;;;6.70;;
23714;SDS011;12036;50.858;4.472;2022-12-07T09:45:35;10.68;;;6.03;;
23714;SDS011;12036;50.858;4.472;2022-12-07T09:48:02;10.93;;;6.03;;
23714;SDS011;12036;50.858;4.472;2022-12-07T09:50:29;11.20;;;6.43;;
23714;SDS011;12036;50.858;4.472;2022-12-07T09:53:08;9.80;;;6.03;;
23714;SDS011;12036;50.858;4.472;2022-12-07T09:55:39;9.95;;;5.53;;
23714;SDS011;12036;50.858;4.472;2022-12-07T09:58:06;13.85;;;5.38;;
23714;SDS011;12036;50.858;4.472;2022-12-07T10:00:33;12.75;;;5.55;;
23714;SDS011;12036;50.858;4.472;2022-12-07T10:02:59;13.10;;;6.65;;
23714;SDS011;12036;50.858;4.472;2022-12-07T10:05:30;12.23;;;6.38;;
23714;SDS011;12036;50.858;4.472;2022-12-07T10:08:03;9.10;;;6.10;;
23714;SDS011;12036;50.858;4.472;2022-12-07T10:10:30;9.18;;;5.88;;
23714;SDS011;12036;50.858;4.472;2022-12-07T10:13:00;11.68;;;5.90;;
23714;SDS011;12036;50.858;4.472;2022-12-07T10:15:50;10.48;;;5.75;;
23714;SDS011;12036;50.858;4.472;2022-12-07T10:20:59;13.00;;;6.22;;
23714;SDS011;12036;50.858;4.472;2022-12-07T10:23:28;13.40;;;5.68;;
23714;SDS011;12036;50.858;4.472;2022-12-07T10:25:53;10.45;;;5.55;;
23714;SDS011;12036;50.858;4.472;2022-12-07T10:28:20;8.73;;;5.45;;
23714;SDS011;12036;50.858;4.472;2022-12-07T10:31:00;5.93;;;5.05;;
23714;SDS011;12036;50.858;4.472;2022-12-07T10:36:17;7.78;;;5.97;;
23714;SDS011;12036;50.858;4.472;2022-12-07T10:39:39;12.30;;;6.57;;
23714;SDS011;12036;50.858;4.472;2022-12-07T10:41:53;11.93;;;5.68;;
23714;SDS011;12036;50.858;4.472;2022-12-07T10:44:27;12.38;;;5.80;;
23714;SDS011;12036;50.858;4.472;2022-12-07T10:52:29;11.27;;;6.22;;
23714;SDS011;12036;50.858;4.472;2022-12-07T10:57:56;13.45;;;5.78;;
23714;SDS011;12036;50.858;4.472;2022-12-07T11:00:29;10.48;;;5.35;;
23714;SDS011;12036;50.858;4.472;2022-12-07T11:16:46;8.93;;;5.57;;
23714;SDS011;12036;50.858;4.472;2022-12-07T11:19:20;8.18;;;4.80;;
23714;SDS011;12036;50.858;4.472;2022-12-07T11:21:58;14.25;;;5.68;;
23714;SDS011;12036;50.858;4.472;2022-12-07T11:27:22;9.30;;;5.22;;
23714;SDS011;12036;50.858;4.472;2022-12-07T11:38:28;10.98;;;5.38;;
23714;SDS011;12036;50.858;4.472;2022-12-07T11:41:21;11.00;;;5.13;;
23714;SDS011;12036;50.858;4.472;2022-12-07T11:43:54;15.25;;;5.32;;
23714;SDS011;12036;50.858;4.472;2022-12-07T11:58:55;8.52;;;4.88;;
23714;SDS011;12036;50.858;4.472;2022-12-07T12:03:54;8.82;;;5.13;;
23714;SDS011;12036;50.858;4.472;2022-12-07T12:06:21;10.60;;;5.25;;
23714;SDS011;12036;50.858;4.472;2022-12-07T12:09:00;7.18;;;4.25;;
23714;SDS011;12036;50.858;4.472;2022-12-07T12:14:51;7.03;;;3.95;;
23714;SDS011;12036;50.858;4.472;2022-12-07T12:17:32;7.45;;;3.40;;
23714;SDS011;12036;50.858;4.472;2022-12-07T12:25:54;5.40;;;3.00;;
23714;SDS011;12036;50.858;4.472;2022-12-07T12:28:34;9.35;;;2.97;;
23714;SDS011;12036;50.858;4.472;2022-12-07T12:31:09;7.35;;;3.45;;
23714;SDS011;12036;50.858;4.472;2022-12-07T12:33:56;6.97;;;3.63;;
23714;SDS011;12036;50.858;4.472;2022-12-07T12:46:57;8.88;;;2.90;;
23714;SDS011;12036;50.858;4.472;2022-12-07T12:51:50;3.83;;;2.92;;
23714;SDS011;12036;50.858;4.472;2022-12-07T13:01:46;4.63;;;2.08;;
23714;SDS011;12036;50.858;4.472;2022-12-07T13:04:38;4.28;;;1.70;;
23714;SDS011;12036;50.858;4.472;2022-12-07T13:07:46;6.93;;;1.88;;
23714;SDS011;12036;50.858;4.472;2022-12-07T13:10:15;3.72;;;1.90;;
23714;SDS011;12036;50.858;4.472;2022-12-07T13:12:55;4.28;;;1.90;;
23714;SDS011;12036;50.858;4.472;2022-12-07T13:20:51;4.38;;;1.90;;
23714;SDS011;12036;50.858;4.472;2022-12-07T13:23:33;7.82;;;2.47;;
23714;SDS011;12036;50.858;4.472;2022-12-07T13:29:10;7.20;;;2.60;;
23714;SDS011;12036;50.858;4.472;2022-12-07T13:31:48;3.78;;;2.50;;
23714;SDS011;12036;50.858;4.472;2022-12-07T13:34:33;7.72;;;3.05;;
23714;SDS011;12036;50.858;4.472;2022-12-07T13:37:18;6.43;;;2.80;;
23714;SDS011;12036;50.858;4.472;2022-12-07T13:40:00;6.43;;;2.50;;
23714;SDS011;12036;50.858;4.472;2022-12-07T13:42:37;5.13;;;1.92;;
23714;SDS011;12036;50.858;4.472;2022-12-07T13:48:12;7.55;;;2.47;;
23714;SDS011;12036;50.858;4.472;2022-12-07T13:51:00;5.28;;;2.13;;
23714;SDS011;12036;50.858;4.472;2022-12-07T13:53:27;6.88;;;2.30;;
23714;SDS011;12036;50.858;4.472;2022-12-07T13:55:55;4.57;;;2.22;;
23714;SDS011;12036;50.858;4.472;2022-12-07T13:58:22;4.97;;;2.42;;
23714;SDS011;12036;50.858;4.472;2022-12-07T14:00:49;6.80;;;2.78;;
23714;SDS011;12036;50.858;4.472;2022-12-07T14:05:42;6.82;;;3.03;;
23714;SDS011;12036;50.858;4.472;2022-12-07T14:15:55;6.43;;;1.98;;
23714;SDS011;12036;50.858;4.472;2022-12-07T14:18:29;7.57;;;2.15;;
23714;SDS011;12036;50.858;4.472;2022-12-07T14:23:39;4.63;;;1.98;;
23714;SDS011;12036;50.858;4.472;2022-12-07T14:26:12;2.90;;;1.85;;
23714;SDS011;12036;50.858;4.472;2022-12-07T14:28:44;3.17;;;2.17;;
23714;SDS011;12036;50.858;4.472;2022-12-07T14:33:45;4.22;;;2.92;;
23714;SDS011;12036;50.858;4.472;2022-12-07T14:36:12;8.88;;;3.20;;
23714;SDS011;12036;50.858;4.472;2022-12-07T14:38:38;4.68;;;3.20;;
23714;SDS011;12036;50.858;4.472;2022-12-07T14:41:15;8.75;;;3.80;;
23714;SDS011;12036;50.858;4.472;2022-12-07T14:44:09;5.30;;;3.70;;
23714;SDS011;12036;50.858;4.472;2022-12-07T14:46:36;4.13;;;3.35;;
23714;SDS011;12036;50.858;4.472;2022-12-07T14:49:02;6.50;;;3.90;;
23714;SDS011;12036;50.858;4.472;2022-12-07T14:51:28;7.95;;;4.38;;
23714;SDS011;12036;50.858;4.472;2022-12-07T14:53:53;5.72;;;4.47;;
23714;SDS011;12036;50.858;4.472;2022-12-07T14:56:19;6.90;;;5.22;;
23714;SDS011;12036;50.858;4.472;2022-12-07T14:58:45;8.98;;;5.38;;
23714;SDS011;12036;50.858;4.472;2022-12-07T15:01:13;8.15;;;5.90;;
23714;SDS011;12036;50.858;4.472;2022-12-07T15:03:39;8.85;;;6.07;;
23714;SDS011;12036;50.858;4.472;2022-12-07T15:06:05;6.55;;;5.30;;
23714;SDS011;12036;50.858;4.472;2022-12-07T15:08:32;9.38;;;5.20;;
23714;SDS011;12036;50.858;4.472;2022-12-07T15:10:58;9.60;;;5.95;;
23714;SDS011;12036;50.858;4.472;2022-12-07T15:13:23;9.85;;;5.13;;
23714;SDS011;12036;50.858;4.472;2022-12-07T15:16:12;9.07;;;5.05;;
23714;SDS011;12036;50.858;4.472;2022-12-07T15:18:41;10.88;;;5.57;;
23714;SDS011;12036;50.858;4.472;2022-12-07T15:21:11;11.05;;;4.95;;
23714;SDS011;12036;50.858;4.472;2022-12-07T15:26:04;7.55;;;3.95;;
23714;SDS011;12036;50.858;4.472;2022-12-07T15:28:30;7.20;;;4.65;;
23714;SDS011;12036;50.858;4.472;2022-12-07T15:30:55;9.77;;;5.35;;
23714;SDS011;12036;50.858;4.472;2022-12-07T15:33:21;13.32;;;6.90;;
23714;SDS011;12036;50.858;4.472;2022-12-07T15:35:46;9.65;;;5.32;;
23714;SDS011;12036;50.858;4.472;2022-12-07T15:38:12;10.70;;;4.47;;
23714;SDS011;12036;50.858;4.472;2022-12-07T15:40:38;10.70;;;4.70;;
23714;SDS011;12036;50.858;4.472;2022-12-07T15:43:04;7.20;;;3.50;;
23714;SDS011;12036;50.858;4.472;2022-12-07T15:45:29;6.95;;;3.20;;
23714;SDS011;12036;50.858;4.472;2022-12-07T15:47:55;3.53;;;2.85;;
23714;SDS011;12036;50.858;4.472;2022-12-07T15:50:21;9.82;;;4.03;;
23714;SDS011;12036;50.858;4.472;2022-12-07T15:52:47;6.53;;;3.42;;
23714;SDS011;12036;50.858;4.472;2022-12-07T15:55:13;7.18;;;3.70;;
23714;SDS011;12036;50.858;4.472;2022-12-07T15:57:39;10.35;;;3.35;;
23714;SDS011;12036;50.858;4.472;2022-12-07T16:00:05;8.93;;;3.75;;
23714;SDS011;12036;50.858;4.472;2022-12-07T16:02:33;8.23;;;3.65;;
23714;SDS011;12036;50.858;4.472;2022-12-07T16:04:59;8.57;;;3.58;;
23714;SDS011;12036;50.858;4.472;2022-12-07T16:07:25;8.07;;;4.13;;
23714;SDS011;12036;50.858;4.472;2022-12-07T16:09:50;12.75;;;4.65;;
23714;SDS011;12036;50.858;4.472;2022-12-07T16:12:16;9.43;;;4.18;;
23714;SDS011;12036;50.858;4.472;2022-12-07T16:14:42;13.88;;;4.82;;
23714;SDS011;12036;50.858;4.472;2022-12-07T16:17:08;11.68;;;4.55;;
23714;SDS011;12036;50.858;4.472;2022-12-07T16:19:34;9.10;;;5.10;;
23714;SDS011;12036;50.858;4.472;2022-12-07T16:22:01;6.80;;;3.65;;
23714;SDS011;12036;50.858;4.472;2022-12-07T16:24:28;5.38;;;3.70;;
23714;SDS011;12036;50.858;4.472;2022-12-07T16:26:53;9.43;;;3.63;;
23714;SDS011;12036;50.858;4.472;2022-12-07T16:29:20;5.85;;;3.40;;
23714;SDS011;12036;50.858;4.472;2022-12-07T16:31:47;7.50;;;3.97;;
23714;SDS011;12036;50.858;4.472;2022-12-07T16:34:13;9.02;;;6.10;;
23714;SDS011;12036;50.858;4.472;2022-12-07T16:36:39;10.95;;;6.10;;
23714;SDS011;12036;50.858;4.472;2022-12-07T16:39:05;10.25;;;5.30;;
23714;SDS011;12036;50.858;4.472;2022-12-07T16:41:31;14.98;;;6.07;;
23714;SDS011;12036;50.858;4.472;2022-12-07T16:43:57;19.52;;;10.45;;
23714;SDS011;12036;50.858;4.472;2022-12-07T16:46:27;12.50;;;8.15;;
23714;SDS011;12036;50.858;4.472;2022-12-07T16:48:53;12.80;;;5.60;;
23714;SDS011;12036;50.858;4.472;2022-12-07T16:51:19;10.82;;;5.50;;
23714;SDS011;12036;50.858;4.472;2022-12-07T16:53:44;10.70;;;5.70;;
23714;SDS011;12036;50.858;4.472;2022-12-07T16:56:10;7.45;;;5.10;;
23714;SDS011;12036;50.858;4.472;2022-12-07T16:58:37;6.43;;;3.92;;
23714;SDS011;12036;50.858;4.472;2022-12-07T17:01:09;9.02;;;4.82;;
23714;SDS011;12036;50.858;4.472;2022-12-07T17:03:37;7.80;;;4.65;;
23714;SDS011;12036;50.858;4.472;2022-12-07T17:06:02;9.57;;;4.90;;
23714;SDS011;12036;50.858;4.472;2022-12-07T17:08:28;12.75;;;5.63;;
23714;SDS011;12036;50.858;4.472;2022-12-07T17:10:54;9.05;;;5.32;;